createdAt,value
2022-09-16T00:00:44.592Z,100.00
2022-09-16T00:03:11.912Z,100.00
2022-09-16T00:05:42.275Z,100.00
2022-09-16T00:08:08.936Z,100.00
2022-09-16T00:10:34.962Z,100.00
2022-09-16T00:13:01.282Z,100.00
2022-09-16T00:15:27.080Z,100.00
2022-09-16T00:17:52.823Z,100.00
2022-09-16T00:20:18.631Z,100.00
2022-09-16T00:22:47.422Z,100.00
2022-09-16T00:25:13.296Z,100.00
2022-09-16T00:27:40.418Z,100.00
2022-09-16T00:30:06.875Z,100.00
2022-09-16T00:32:32.706Z,100.00
2022-09-16T00:34:58.447Z,100.00
2022-09-16T00:37:24.272Z,100.00
2022-09-16T00:39:50.373Z,100.00
2022-09-16T00:42:17.617Z,100.00
2022-09-16T00:45:01.587Z,100.00
2022-09-16T00:48:06.994Z,100.00
2022-09-16T00:50:53.304Z,100.00
2022-09-16T00:53:26.655Z,100.00
2022-09-16T00:55:55.526Z,100.00
2022-09-16T00:58:27.260Z,100.00
2022-09-16T01:00:53.163Z,100.00
2022-09-16T01:03:19.925Z,100.00
2022-09-16T01:05:46.816Z,100.00
2022-09-16T01:08:12.576Z,100.00
2022-09-16T01:10:41.511Z,100.00
2022-09-16T01:13:10.856Z,100.00
2022-09-16T01:15:42.465Z,100.00
2022-09-16T01:18:25.636Z,100.00
2022-09-16T01:21:11.627Z,100.00
2022-09-16T01:23:56.325Z,100.00
2022-09-16T01:26:22.030Z,100.00
2022-09-16T01:29:23.837Z,100.00
2022-09-16T01:32:01.574Z,100.00
2022-09-16T01:34:46.931Z,100.00
2022-09-16T01:37:54.328Z,100.00
2022-09-16T01:40:38.492Z,100.00
2022-09-16T01:43:19.150Z,100.00
2022-09-16T01:46:09.110Z,100.00
2022-09-16T01:48:43.079Z,100.00
2022-09-16T01:51:19.129Z,100.00
2022-09-16T01:54:09.235Z,100.00
2022-09-16T01:57:02.409Z,100.00
2022-09-16T01:59:37.536Z,100.00
2022-09-16T02:02:17.396Z,100.00
2022-09-16T02:04:49.294Z,100.00
2022-09-16T02:07:19.978Z,100.00
2022-09-16T02:09:52.164Z,100.00
2022-09-16T02:12:23.774Z,100.00
2022-09-16T02:14:52.431Z,100.00
2022-09-16T02:17:22.555Z,100.00
2022-09-16T02:20:02.663Z,100.00
2022-09-16T02:22:37.786Z,100.00
2022-09-16T02:25:06.676Z,100.00
2022-09-16T02:27:35.174Z,100.00
2022-09-16T02:30:10.337Z,100.00
2022-09-16T02:32:42.934Z,100.00
2022-09-16T02:35:12.055Z,100.00
2022-09-16T02:37:46.548Z,100.00
2022-09-16T02:40:19.083Z,100.00
2022-09-16T02:42:45.155Z,100.00
2022-09-16T02:45:11.841Z,100.00
2022-09-16T02:47:52.580Z,100.00
2022-09-16T02:50:38.035Z,100.00
2022-09-16T02:53:16.848Z,100.00
2022-09-16T02:55:58.844Z,100.00
2022-09-16T02:58:24.636Z,100.00
2022-09-16T03:00:54.361Z,100.00
2022-09-16T03:03:20.795Z,100.00
2022-09-16T03:06:24.326Z,100.00
2022-09-16T03:08:51.819Z,100.00
2022-09-16T03:11:53.043Z,100.00
2022-09-16T03:14:24.876Z,100.00
2022-09-16T03:17:09.051Z,100.00
2022-09-16T03:20:20.244Z,100.00
2022-09-16T03:22:52.363Z,100.00
2022-09-16T03:25:29.274Z,100.00
2022-09-16T03:28:03.533Z,100.00
2022-09-16T03:30:34.353Z,100.00
2022-09-16T03:33:07.984Z,100.00
2022-09-16T03:35:41.655Z,100.00
2022-09-16T03:38:10.188Z,100.00
2022-09-16T03:40:37.254Z,100.00
2022-09-16T03:43:12.904Z,100.00
2022-09-16T03:45:42.108Z,100.00
2022-09-16T03:48:08.939Z,100.00
2022-09-16T03:50:35.408Z,100.00
2022-09-16T03:53:01.941Z,100.00
2022-09-16T03:55:27.789Z,100.00
2022-09-16T03:57:54.243Z,100.00
2022-09-16T04:00:20.691Z,100.00
2022-09-16T04:02:46.490Z,100.00
2022-09-16T04:05:12.366Z,100.00
2022-09-16T04:07:38.277Z,100.00
2022-09-16T04:10:05.483Z,100.00
2022-09-16T04:12:33.069Z,100.00
2022-09-16T04:15:00.786Z,100.00
2022-09-16T04:17:26.835Z,100.00
2022-09-16T04:19:52.547Z,100.00
2022-09-16T04:22:18.494Z,100.00
2022-09-16T04:24:44.264Z,100.00
2022-09-16T04:27:10.036Z,100.00
2022-09-16T04:29:36.110Z,100.00
2022-09-16T04:32:02.136Z,100.00
2022-09-16T04:34:27.973Z,100.00
2022-09-16T04:36:53.925Z,100.00
2022-09-16T04:39:19.673Z,100.00
2022-09-16T04:41:45.449Z,100.00
2022-09-16T04:44:11.389Z,100.00
2022-09-16T04:46:37.235Z,100.00
2022-09-16T04:49:03.317Z,100.00
2022-09-16T04:51:29.217Z,100.00
2022-09-16T04:53:56.504Z,100.00
2022-09-16T04:56:27.893Z,100.00
2022-09-16T04:58:56.869Z,100.00
2022-09-16T05:01:25.431Z,100.00
2022-09-16T05:03:53.813Z,100.00
2022-09-16T05:06:27.871Z,100.00
2022-09-16T05:08:55.497Z,100.00
2022-09-16T05:11:26.869Z,100.00
2022-09-16T05:13:53.308Z,100.00
2022-09-16T05:16:21.722Z,100.00
2022-09-16T05:18:49.998Z,100.00
2022-09-16T05:21:18.400Z,100.00
2022-09-16T05:23:46.957Z,100.00
2022-09-16T05:26:18.724Z,100.00
2022-09-16T05:28:44.697Z,100.00
2022-09-16T05:31:16.557Z,100.00
2022-09-16T05:33:44.563Z,100.00
2022-09-16T05:36:16.048Z,100.00
2022-09-16T05:38:54.348Z,100.00
2022-09-16T05:41:28.568Z,100.00
2022-09-16T05:43:58.070Z,100.00
2022-09-16T05:46:24.122Z,100.00
2022-09-16T05:48:50.185Z,100.00
2022-09-16T05:51:20.621Z,100.00
2022-09-16T05:53:48.133Z,100.00
2022-09-16T05:56:16.279Z,100.00
2022-09-16T05:58:42.874Z,100.00
2022-09-16T06:01:14.736Z,100.00
2022-09-16T06:03:42.044Z,100.00
2022-09-16T06:06:25.430Z,100.00
2022-09-16T06:08:54.724Z,100.00
2022-09-16T06:11:20.528Z,100.00
2022-09-16T06:13:46.834Z,100.00
2022-09-16T06:16:13.871Z,100.00
2022-09-16T06:18:39.959Z,100.00
2022-09-16T06:21:11.045Z,100.00
2022-09-16T06:23:38.362Z,100.00
2022-09-16T06:26:07.243Z,100.00
2022-09-16T06:28:33.604Z,100.00
2022-09-16T06:31:20.202Z,100.00
2022-09-16T06:33:46.217Z,100.00
2022-09-16T06:36:14.472Z,100.00
2022-09-16T06:38:40.619Z,100.00
2022-09-16T06:41:08.347Z,100.00
2022-09-16T06:43:35.109Z,100.00
2022-09-16T06:46:05.740Z,100.00
2022-09-16T06:48:33.272Z,100.00
2022-09-16T06:51:01.508Z,100.00
2022-09-16T06:53:28.162Z,100.00
2022-09-16T06:55:54.090Z,100.00
2022-09-16T06:58:19.958Z,100.00
2022-09-16T07:00:45.857Z,100.00
2022-09-16T07:03:11.659Z,100.00
2022-09-16T07:05:37.429Z,100.00
2022-09-16T07:08:03.228Z,100.00
2022-09-16T07:10:29.994Z,100.00
2022-09-16T07:12:55.936Z,100.00
2022-09-16T07:15:21.694Z,100.00
2022-09-16T07:17:52.270Z,100.00
2022-09-16T07:20:18.000Z,100.00
2022-09-16T07:22:44.223Z,100.00
2022-09-16T07:25:09.980Z,100.00
2022-09-16T07:27:35.737Z,100.00
2022-09-16T07:30:03.511Z,100.00
2022-09-16T07:32:31.489Z,100.00
2022-09-16T07:34:57.313Z,100.00
2022-09-16T07:37:23.128Z,100.00
2022-09-16T07:39:49.473Z,100.00
2022-09-16T07:42:15.576Z,100.00
2022-09-16T07:44:41.343Z,100.00
2022-09-16T07:47:07.103Z,100.00
2022-09-16T07:49:32.940Z,100.00
2022-09-16T07:51:58.757Z,100.00
2022-09-16T07:54:24.704Z,100.00
2022-09-16T07:56:50.503Z,100.00
2022-09-16T07:59:19.019Z,100.00
2022-09-16T08:01:46.120Z,100.00
2022-09-16T08:04:12.436Z,100.00
2022-09-16T08:06:39.269Z,100.00
2022-09-16T08:09:27.410Z,100.00
2022-09-16T08:11:50.902Z,100.00
2022-09-16T08:14:16.688Z,100.00
2022-09-16T08:16:42.469Z,100.00
2022-09-16T08:19:08.464Z,100.00
2022-09-16T08:21:34.219Z,100.00
2022-09-16T08:24:00.095Z,100.00
2022-09-16T08:26:26.263Z,100.00
2022-09-16T08:29:09.363Z,100.00
2022-09-16T08:31:36.370Z,98.67
2022-09-16T08:34:02.348Z,100.00
2022-09-16T08:36:28.236Z,98.00
2022-09-16T08:38:55.993Z,96.91
2022-09-16T08:41:53.156Z,95.76
2022-09-16T08:44:41.148Z,97.49
2022-09-16T08:47:43.086Z,97.05
2022-09-16T08:50:16.488Z,98.70
2022-09-16T08:52:44.590Z,97.02
2022-09-16T08:55:31.434Z,97.17
2022-09-16T08:58:03.491Z,95.59
2022-09-16T09:00:30.566Z,94.73
2022-09-16T09:03:13.772Z,92.93
2022-09-16T09:05:55.036Z,92.89
2022-09-16T09:08:44.587Z,90.68
2022-09-16T09:11:28.928Z,90.14
2022-09-16T09:14:10.249Z,90.62
2022-09-16T09:16:42.073Z,91.03
2022-09-16T09:19:10.542Z,92.31
2022-09-16T09:21:45.869Z,92.80
2022-09-16T09:24:27.423Z,93.03
2022-09-16T09:27:14.227Z,90.43
2022-09-16T09:30:00.202Z,88.94
2022-09-16T09:32:49.014Z,85.57
2022-09-16T09:35:18.546Z,86.35
2022-09-16T09:38:02.828Z,84.97
2022-09-16T09:40:51.573Z,82.14
2022-09-16T09:43:48.362Z,80.17
2022-09-16T09:46:25.797Z,81.06
2022-09-16T09:49:15.697Z,83.05
2022-09-16T09:51:50.891Z,84.28
2022-09-16T09:54:26.073Z,83.00
2022-09-16T09:57:16.170Z,80.89
2022-09-16T09:59:41.902Z,78.25
2022-09-16T10:02:16.217Z,77.01
2022-09-16T10:04:42.925Z,78.11
2022-09-16T10:07:11.278Z,80.07
2022-09-16T10:09:47.730Z,81.04
2022-09-16T10:12:13.501Z,81.13
2022-09-16T10:14:39.370Z,79.63
2022-09-16T10:17:15.017Z,79.24
2022-09-16T10:20:23.148Z,79.15
2022-09-16T10:23:00.596Z,78.05
2022-09-16T10:25:28.877Z,79.19
2022-09-16T10:28:00.705Z,78.79
2022-09-16T10:30:44.333Z,77.59
2022-09-16T10:33:29.413Z,77.58
2022-09-16T10:35:59.831Z,78.08
2022-09-16T10:39:04.418Z,78.38
2022-09-16T10:41:46.957Z,79.14
2022-09-16T10:44:26.524Z,77.51
2022-09-16T10:47:03.039Z,73.38
2022-09-16T10:49:37.400Z,70.60
2022-09-16T10:52:23.660Z,72.21
2022-09-16T10:54:50.187Z,75.89
2022-09-16T10:57:31.866Z,75.83
2022-09-16T11:00:13.455Z,77.25
2022-09-16T11:03:07.670Z,74.72
2022-09-16T11:05:57.687Z,69.06
2022-09-16T11:08:34.077Z,63.08
2022-09-16T11:11:11.776Z,57.67
2022-09-16T11:13:40.829Z,54.91
2022-09-16T11:16:41.492Z,58.75
2022-09-16T11:19:19.775Z,58.46
2022-09-16T11:22:08.756Z,60.54
2022-09-16T11:25:05.448Z,57.48
2022-09-16T11:27:53.637Z,53.87
2022-09-16T11:30:24.739Z,52.00
2022-09-16T11:32:53.412Z,50.05
2022-09-16T11:35:35.209Z,48.63
2022-09-16T11:38:00.939Z,48.76
2022-09-16T11:40:33.307Z,48.58
2022-09-16T11:43:35.267Z,48.42
2022-09-16T11:46:16.595Z,50.06
2022-09-16T11:48:51.549Z,50.16
2022-09-16T11:51:35.668Z,49.18
2022-09-16T11:54:28.990Z,49.72
2022-09-16T11:57:03.520Z,51.37
2022-09-16T11:59:36.918Z,49.18
2022-09-16T12:02:11.771Z,48.24
2022-09-16T12:04:48.786Z,50.18
2022-09-16T12:07:49.414Z,52.61
2022-09-16T12:10:27.211Z,52.27
2022-09-16T12:13:00.511Z,54.93
2022-09-16T12:15:36.907Z,57.96
2022-09-16T12:18:24.635Z,58.94
2022-09-16T12:20:56.520Z,57.97
2022-09-16T12:23:25.401Z,54.79
2022-09-16T12:26:08.796Z,49.56
2022-09-16T12:28:51.064Z,47.30
2022-09-16T12:31:24.375Z,46.48
2022-09-16T12:34:02.085Z,46.54
2022-09-16T12:36:32.585Z,49.90
2022-09-16T12:38:59.225Z,53.18
2022-09-16T12:42:00.245Z,56.22
2022-09-16T12:44:40.892Z,59.09
2022-09-16T12:47:56.932Z,62.50
2022-09-16T12:50:50.192Z,63.40
2022-09-16T12:53:59.860Z,62.84
2022-09-16T12:56:36.372Z,65.56
2022-09-16T12:59:22.918Z,68.68
2022-09-16T13:01:57.766Z,68.97
2022-09-16T13:04:33.574Z,69.14
2022-09-16T13:07:01.217Z,70.39
2022-09-16T13:09:32.436Z,68.89
2022-09-16T13:15:06.048Z,63.13
2022-09-16T13:17:35.474Z,57.70
2022-09-16T13:20:14.703Z,53.77
2022-09-16T13:22:49.409Z,53.06
2022-09-16T13:25:26.899Z,52.74
2022-09-16T13:28:01.799Z,51.65
2022-09-16T13:30:27.683Z,51.69
2022-09-16T13:32:53.473Z,51.06
2022-09-16T13:35:20.075Z,51.04
2022-09-16T13:37:47.724Z,52.95
2022-09-16T13:40:31.658Z,54.85
2022-09-16T13:43:29.505Z,56.83
2022-09-16T13:46:27.642Z,57.48
2022-09-16T13:49:03.434Z,58.68
2022-09-16T13:51:35.858Z,60.63
2022-09-16T13:54:03.746Z,60.73
2022-09-16T13:56:54.501Z,62.04
2022-09-16T13:59:23.165Z,62.56
2022-09-16T14:02:13.544Z,64.78
2022-09-16T14:04:45.906Z,65.89
2022-09-16T14:07:40.807Z,67.04
2022-09-16T14:10:29.317Z,68.36
2022-09-16T14:12:58.156Z,70.26
2022-09-16T14:15:25.317Z,71.75
2022-09-16T14:17:57.561Z,72.58
2022-09-16T14:20:24.803Z,71.80
2022-09-16T14:23:17.264Z,72.66
2022-09-16T14:25:43.124Z,73.93
2022-09-16T14:28:20.821Z,74.21
2022-09-16T14:30:59.705Z,76.63
2022-09-16T14:33:33.132Z,79.81
2022-09-16T14:36:00.925Z,79.07
2022-09-16T14:38:45.536Z,83.56
2022-09-16T14:41:21.336Z,87.99
2022-09-16T14:43:47.303Z,90.07
2022-09-16T14:46:13.222Z,91.67
2022-09-16T14:48:41.461Z,93.72
2022-09-16T14:51:20.940Z,97.31
2022-09-16T14:54:13.613Z,95.26
2022-09-16T14:56:39.696Z,96.49
2022-09-16T14:59:11.428Z,96.15
2022-09-16T15:01:38.478Z,96.95
2022-09-16T15:04:17.713Z,97.75
2022-09-16T15:06:49.916Z,98.32
2022-09-16T15:09:28.659Z,97.81
2022-09-16T15:12:00.150Z,98.62
2022-09-16T15:14:26.092Z,96.62
2022-09-16T15:17:03.091Z,97.18
2022-09-16T15:19:35.702Z,96.12
2022-09-16T15:22:03.134Z,96.54
2022-09-16T15:24:32.596Z,97.22
2022-09-16T15:26:59.322Z,94.27
2022-09-16T15:29:29.952Z,91.65
2022-09-16T15:32:20.205Z,89.54
2022-09-16T15:34:46.122Z,88.11
2022-09-16T15:37:32.917Z,88.32
2022-09-16T15:40:17.493Z,87.11
2022-09-16T15:42:43.308Z,87.31
2022-09-16T15:45:21.812Z,86.41
2022-09-16T15:48:01.376Z,85.30
2022-09-16T15:50:36.660Z,85.83
2022-09-16T15:53:07.928Z,84.95
2022-09-16T15:55:48.038Z,85.16
2022-09-16T15:58:31.833Z,84.64
2022-09-16T16:01:09.686Z,84.38
2022-09-16T16:03:44.742Z,86.45
2022-09-16T16:06:11.624Z,89.17
2022-09-16T16:08:42.415Z,89.66
2022-09-16T16:11:11.605Z,92.37
2022-09-16T16:13:38.282Z,94.85
2022-09-16T16:16:06.814Z,94.93
2022-09-16T16:18:33.392Z,95.46
2022-09-16T16:21:03.950Z,94.67
2022-09-16T16:23:29.735Z,94.75
2022-09-16T16:25:55.586Z,95.18
2022-09-16T16:28:24.382Z,94.35
2022-09-16T16:30:50.284Z,91.24
2022-09-16T16:33:16.205Z,91.16
2022-09-16T16:35:42.027Z,90.79
2022-09-16T16:38:07.821Z,89.48
2022-09-16T16:40:33.715Z,91.46
2022-09-16T16:42:59.480Z,91.24
2022-09-16T16:45:25.355Z,92.25
2022-09-16T16:47:52.901Z,93.26
2022-09-16T16:50:18.942Z,92.63
2022-09-16T16:52:50.470Z,90.93
2022-09-16T16:55:16.309Z,92.00
2022-09-16T16:57:43.411Z,92.44
2022-09-16T17:00:09.962Z,92.98
2022-09-16T17:02:35.875Z,92.41
2022-09-16T17:05:01.824Z,94.10
2022-09-16T17:07:28.464Z,90.51
2022-09-16T17:09:56.512Z,93.35
2022-09-16T17:12:22.329Z,94.51
2022-09-16T17:14:48.148Z,94.34
2022-09-16T17:17:14.031Z,97.83
2022-09-16T17:19:39.804Z,100.00
2022-09-16T17:22:05.630Z,100.00
2022-09-16T17:24:32.366Z,99.71
2022-09-16T17:26:58.171Z,100.00
2022-09-16T17:29:24.321Z,100.00
2022-09-16T17:31:50.142Z,100.00
2022-09-16T17:34:16.089Z,100.00
2022-09-16T17:36:44.851Z,100.00
2022-09-16T17:39:16.200Z,100.00
2022-09-16T17:41:42.944Z,100.00
2022-09-16T17:44:10.982Z,100.00
2022-09-16T17:46:38.426Z,100.00
2022-09-16T17:49:07.619Z,99.41
2022-09-16T17:51:35.035Z,99.91
2022-09-16T17:54:02.617Z,99.13
2022-09-16T17:56:28.974Z,100.00
2022-09-16T17:58:54.841Z,100.00
2022-09-16T18:01:23.529Z,100.00
2022-09-16T18:03:54.614Z,100.00
2022-09-16T18:06:22.861Z,100.00
2022-09-16T18:08:51.177Z,100.00
2022-09-16T18:11:18.071Z,100.00
2022-09-16T18:13:47.370Z,100.00
2022-09-16T18:16:15.848Z,100.00
2022-09-16T18:18:43.042Z,100.00
2022-09-16T18:21:13.540Z,100.00
2022-09-16T18:23:40.973Z,100.00
2022-09-16T18:26:12.459Z,100.00
2022-09-16T18:29:05.129Z,100.00
2022-09-16T18:31:26.668Z,100.00
2022-09-16T18:33:54.164Z,100.00
2022-09-16T18:36:23.600Z,100.00
2022-09-16T18:38:53.402Z,100.00
2022-09-16T18:41:22.624Z,100.00
2022-09-16T18:43:59.042Z,100.00
2022-09-16T18:46:30.904Z,100.00
2022-09-16T18:48:57.678Z,100.00
2022-09-16T18:51:26.088Z,100.00
2022-09-16T18:53:57.334Z,100.00
2022-09-16T18:56:24.811Z,100.00
2022-09-16T18:59:19.514Z,100.00
2022-09-16T19:01:38.950Z,100.00
2022-09-16T19:04:07.739Z,100.00
2022-09-16T19:06:42.259Z,100.00
2022-09-16T19:09:10.729Z,100.00
2022-09-16T19:11:37.901Z,100.00
2022-09-16T19:14:05.643Z,100.00
2022-09-16T19:16:32.477Z,100.00
2022-09-16T19:19:00.170Z,100.00
2022-09-16T19:21:26.269Z,100.00
2022-09-16T19:23:56.085Z,100.00
2022-09-16T19:26:22.219Z,100.00
2022-09-16T19:28:48.132Z,100.00
2022-09-16T19:31:14.463Z,100.00
2022-09-16T19:33:41.732Z,100.00
2022-09-16T19:36:18.930Z,100.00
2022-09-16T19:38:46.509Z,100.00
2022-09-16T19:41:13.580Z,100.00
2022-09-16T19:43:40.102Z,100.00
2022-09-16T19:46:11.977Z,100.00
2022-09-16T19:48:39.756Z,100.00
2022-09-16T19:51:07.860Z,100.00
2022-09-16T19:53:35.124Z,100.00
2022-09-16T19:56:06.730Z,100.00
2022-09-16T19:58:34.294Z,100.00
2022-09-16T20:01:01.484Z,100.00
2022-09-16T20:03:31.931Z,100.00
2022-09-16T20:06:02.181Z,100.00
2022-09-16T20:08:28.125Z,100.00
2022-09-16T20:10:54.149Z,100.00
2022-09-16T20:13:20.138Z,100.00
2022-09-16T20:15:45.984Z,100.00
2022-09-16T20:18:11.815Z,100.00
2022-09-16T20:20:37.626Z,100.00
2022-09-16T20:23:03.530Z,100.00
2022-09-16T20:25:31.162Z,100.00
2022-09-16T20:27:56.978Z,100.00
2022-09-16T20:30:23.169Z,100.00
2022-09-16T20:32:49.192Z,100.00
2022-09-16T20:35:15.075Z,100.00
2022-09-16T20:37:42.844Z,100.00
2022-09-16T20:40:08.979Z,100.00
2022-09-16T20:42:34.813Z,100.00
2022-09-16T20:45:00.564Z,100.00
2022-09-16T20:47:29.392Z,100.00
2022-09-16T20:49:55.439Z,100.00
2022-09-16T20:52:21.538Z,100.00
2022-09-16T20:54:47.741Z,100.00
2022-09-16T20:57:13.538Z,100.00
2022-09-16T20:59:39.683Z,100.00
2022-09-16T21:02:05.567Z,100.00
2022-09-16T21:04:31.332Z,100.00
2022-09-16T21:06:57.173Z,100.00
2022-09-16T21:09:25.639Z,100.00
2022-09-16T21:11:51.932Z,100.00
2022-09-16T21:14:20.690Z,100.00
2022-09-16T21:16:47.323Z,100.00
2022-09-16T21:19:13.660Z,100.00
2022-09-16T21:21:43.499Z,100.00
2022-09-16T21:24:09.666Z,100.00
2022-09-16T21:26:36.990Z,100.00
2022-09-16T21:29:10.191Z,100.00
2022-09-16T21:31:37.760Z,100.00
2022-09-16T21:34:08.656Z,100.00
2022-09-16T21:36:39.413Z,100.00
2022-09-16T21:39:06.566Z,100.00
2022-09-16T21:41:32.968Z,100.00
2022-09-16T21:43:58.841Z,100.00
2022-09-16T21:46:26.971Z,100.00
2022-09-16T21:48:57.427Z,100.00
2022-09-16T21:51:23.942Z,100.00
2022-09-16T21:53:49.910Z,100.00
2022-09-16T21:56:20.731Z,100.00
2022-09-16T21:58:48.164Z,100.00
2022-09-16T22:01:17.306Z,100.00
2022-09-16T22:03:45.239Z,100.00
2022-09-16T22:06:13.385Z,100.00
2022-09-16T22:08:48.068Z,100.00
2022-09-16T22:11:16.789Z,100.00
2022-09-16T22:13:42.799Z,100.00
2022-09-16T22:16:13.792Z,100.00
2022-09-16T22:18:39.756Z,100.00
2022-09-16T22:21:11.488Z,100.00
2022-09-16T22:23:38.901Z,100.00
2022-09-16T22:26:06.892Z,100.00
2022-09-16T22:28:34.478Z,100.00
2022-09-16T22:31:06.492Z,100.00
2022-09-16T22:33:33.473Z,100.00
2022-09-16T22:36:08.166Z,100.00
2022-09-16T22:38:34.414Z,100.00
2022-09-16T22:41:02.244Z,100.00
2022-09-16T22:43:28.315Z,100.00
2022-09-16T22:46:03.005Z,100.00
2022-09-16T22:48:29.197Z,100.00
2022-09-16T22:50:59.302Z,100.00
2022-09-16T22:53:27.491Z,100.00
2022-09-16T22:56:02.415Z,100.00
2022-09-16T22:58:29.058Z,100.00
2022-09-16T23:01:10.502Z,100.00
2022-09-16T23:03:37.188Z,100.00
2022-09-16T23:06:06.592Z,100.00
2022-09-16T23:08:37.344Z,100.00
2022-09-16T23:11:05.555Z,100.00
2022-09-16T23:13:32.831Z,100.00
2022-09-16T23:16:04.583Z,100.00
2022-09-16T23:18:32.373Z,100.00
2022-09-16T23:21:03.929Z,100.00
2022-09-16T23:23:30.812Z,100.00
2022-09-16T23:26:01.885Z,100.00
2022-09-16T23:28:27.673Z,100.00
2022-09-16T23:30:53.456Z,100.00
2022-09-16T23:33:19.243Z,100.00
2022-09-16T23:35:49.525Z,100.00
2022-09-16T23:38:16.187Z,100.00
2022-09-16T23:40:42.418Z,100.00
2022-09-16T23:43:08.889Z,100.00
2022-09-16T23:45:35.295Z,100.00
2022-09-16T23:48:01.462Z,100.00
2022-09-16T23:50:27.229Z,100.00
2022-09-16T23:52:53.429Z,100.00
2022-09-16T23:55:19.289Z,100.00
2022-09-16T23:57:45.078Z,100.00
